Time;durP1;ratioP1;P1;durP2;ratioP2;P2;SDS_P1;SDS_P2;PMS_P1;PMS_P2;Temp;Humidity;BMP_temperature;BMP_pressure;BME280_temperature;BME280_humidity;BME280_pressure;Samples;Min_cycle;Max_cycle;Signal;HPM_P1;HPM_P2
2021/12/09 00:00:16;;;;;;;8.63;4.40;;;;;;;;;;5035280;28;20021;-86
2021/12/09 00:02:42;;;;;;;9.05;4.68;;;;;;;;;;5028478;28;20532;-86
2021/12/09 00:05:14;;;;;;;7.35;4.68;;;;;;;;;;5027596;28;20032;-81
2021/12/09 00:07:42;;;;;;;12.48;5.13;;;;;;;;;;5025437;28;20060;-81
2021/12/09 00:10:09;;;;;;;8.80;4.50;;;;;;;;;;5046561;28;20036;-82
2021/12/09 00:12:35;;;;;;;10.05;4.32;;;;;;;;;;5032622;28;20102;-81
2021/12/09 00:15:00;;;;;;;8.27;4.82;;;;;;;;;;5033005;28;20103;-86
2021/12/09 00:17:26;;;;;;;7.63;4.20;;;;;;;;;;5046290;28;20130;-81
2021/12/09 00:19:51;;;;;;;10.90;4.35;;;;;;;;;;5032159;28;20384;-86
2021/12/09 00:22:17;;;;;;;11.02;4.53;;;;;;;;;;5046907;28;20025;-81
2021/12/09 00:24:42;;;;;;;9.73;4.28;;;;;;;;;;5036090;28;20032;-86
2021/12/09 00:27:07;;;;;;;10.32;4.70;;;;;;;;;;5031119;28;20270;-82
2021/12/09 00:29:33;;;;;;;7.93;4.50;;;;;;;;;;5030245;28;20033;-86
2021/12/09 00:31:58;;;;;;;11.23;4.70;;;;;;;;;;5024704;28;20120;-81
2021/12/09 00:34:30;;;;;;;7.88;4.32;;;;;;;;;;5028995;28;20029;-85
2021/12/09 00:37:02;;;;;;;7.90;4.30;;;;;;;;;;5027569;28;20040;-86
2021/12/09 00:39:28;;;;;;;10.70;4.97;;;;;;;;;;5024590;28;20028;-81
2021/12/09 00:41:54;;;;;;;12.77;4.20;;;;;;;;;;5034772;28;20029;-82
2021/12/09 00:44:19;;;;;;;8.13;3.97;;;;;;;;;;5040042;28;20034;-81
2021/12/09 00:46:44;;;;;;;9.63;4.70;;;;;;;;;;5028655;28;20035;-81
2021/12/09 00:49:10;;;;;;;7.78;4.13;;;;;;;;;;5046006;28;20028;-82
2021/12/09 00:51:35;;;;;;;13.05;4.50;;;;;;;;;;5044591;28;20473;-82
2021/12/09 00:54:01;;;;;;;8.07;4.15;;;;;;;;;;5028313;28;20037;-86
2021/12/09 00:56:26;;;;;;;10.30;4.38;;;;;;;;;;5029460;28;20029;-86
2021/12/09 00:58:53;;;;;;;8.77;4.43;;;;;;;;;;5023627;28;20467;-81
2021/12/09 01:01:19;;;;;;;8.68;4.22;;;;;;;;;;5025041;28;20028;-85
2021/12/09 01:03:45;;;;;;;7.75;4.28;;;;;;;;;;5028535;28;20419;-85
2021/12/09 01:06:11;;;;;;;8.27;3.85;;;;;;;;;;5034854;28;20032;-86
2021/12/09 01:08:37;;;;;;;9.68;4.80;;;;;;;;;;5027760;28;20029;-86
2021/12/09 01:11:05;;;;;;;9.95;4.10;;;;;;;;;;5033253;28;20035;-81
2021/12/09 01:13:30;;;;;;;9.43;4.20;;;;;;;;;;5045177;28;20036;-81
2021/12/09 01:15:57;;;;;;;9.00;4.43;;;;;;;;;;5018814;28;20428;-81
2021/12/09 01:18:22;;;;;;;10.80;4.18;;;;;;;;;;5025849;28;20041;-85
2021/12/09 01:20:48;;;;;;;7.72;4.03;;;;;;;;;;5042516;28;20048;-86
2021/12/09 01:23:14;;;;;;;9.57;3.75;;;;;;;;;;5026957;28;20131;-85
2021/12/09 01:25:39;;;;;;;8.43;4.38;;;;;;;;;;5026560;28;20388;-87
2021/12/09 01:28:08;;;;;;;9.25;4.05;;;;;;;;;;5030427;28;20026;-81
2021/12/09 01:30:36;;;;;;;8.75;4.32;;;;;;;;;;5032867;28;20746;-86
2021/12/09 01:33:02;;;;;;;8.73;4.28;;;;;;;;;;5043077;28;20085;-85
2021/12/09 01:35:33;;;;;;;7.82;4.32;;;;;;;;;;5032819;28;20036;-86
2021/12/09 01:38:02;;;;;;;9.80;5.00;;;;;;;;;;5028792;28;20028;-82
2021/12/09 01:40:29;;;;;;;11.98;4.70;;;;;;;;;;5025615;28;20468;-81
2021/12/09 01:42:57;;;;;;;8.15;4.63;;;;;;;;;;5051131;28;20044;-86
2021/12/09 01:45:23;;;;;;;8.70;4.63;;;;;;;;;;5031919;28;20028;-81
2021/12/09 01:47:48;;;;;;;9.23;4.13;;;;;;;;;;5031323;28;20025;-81
2021/12/09 01:50:15;;;;;;;10.15;4.90;;;;;;;;;;5027311;28;20492;-81
2021/12/09 01:52:40;;;;;;;10.20;4.00;;;;;;;;;;5036253;28;20039;-86
2021/12/09 01:55:08;;;;;;;9.32;4.63;;;;;;;;;;5039836;28;20042;-86
2021/12/09 01:57:34;;;;;;;7.22;4.07;;;;;;;;;;5023456;28;20541;-81
2021/12/09 02:00:00;;;;;;;10.52;4.38;;;;;;;;;;5031921;28;20036;-81
2021/12/09 02:02:26;;;;;;;11.57;4.22;;;;;;;;;;5033517;28;20029;-81
2021/12/09 02:04:51;;;;;;;9.85;4.68;;;;;;;;;;5040850;28;20029;-82
2021/12/09 02:07:17;;;;;;;8.65;4.10;;;;;;;;;;5023210;28;20117;-81
2021/12/09 02:09:42;;;;;;;8.75;3.88;;;;;;;;;;5029642;28;20025;-82
2021/12/09 02:12:10;;;;;;;8.32;3.90;;;;;;;;;;5032894;28;20029;-86
2021/12/09 02:14:40;;;;;;;8.20;4.47;;;;;;;;;;5042542;28;20121;-87
2021/12/09 02:17:05;;;;;;;10.93;4.18;;;;;;;;;;5039485;28;20053;-81
2021/12/09 02:19:31;;;;;;;8.07;4.15;;;;;;;;;;5037008;28;20507;-81
2021/12/09 02:21:56;;;;;;;8.50;4.28;;;;;;;;;;5032771;28;20094;-81
2021/12/09 02:24:22;;;;;;;10.20;4.50;;;;;;;;;;5031359;28;20025;-85
2021/12/09 02:26:49;;;;;;;11.18;3.70;;;;;;;;;;5033620;28;20055;-81
2021/12/09 02:29:15;;;;;;;9.57;4.32;;;;;;;;;;5030025;28;20026;-81
2021/12/09 02:31:42;;;;;;;10.27;4.47;;;;;;;;;;5030045;28;20495;-82
2021/12/09 02:34:08;;;;;;;10.27;4.30;;;;;;;;;;5030043;28;20025;-81
2021/12/09 02:36:40;;;;;;;9.88;4.18;;;;;;;;;;5029177;28;20029;-81
2021/12/09 02:39:11;;;;;;;9.18;3.88;;;;;;;;;;5049314;28;20021;-86
2021/12/09 02:41:38;;;;;;;8.70;4.60;;;;;;;;;;5025198;28;20025;-85
2021/12/09 02:44:07;;;;;;;10.13;4.07;;;;;;;;;;5028436;28;20033;-81
2021/12/09 02:46:36;;;;;;;10.00;3.67;;;;;;;;;;5030837;28;20025;-81
2021/12/09 02:49:09;;;;;;;9.98;4.35;;;;;;;;;;5045078;28;20029;-80
2021/12/09 02:51:35;;;;;;;9.20;4.20;;;;;;;;;;5045757;28;20056;-81
2021/12/09 02:54:01;;;;;;;9.32;4.47;;;;;;;;;;5032376;28;20553;-86
2021/12/09 02:56:26;;;;;;;7.53;4.10;;;;;;;;;;5029265;28;20037;-84
2021/12/09 02:58:53;;;;;;;7.43;3.38;;;;;;;;;;5034977;28;20021;-81
2021/12/09 03:01:23;;;;;;;10.68;3.97;;;;;;;;;;5044949;28;20025;-81
2021/12/09 03:03:52;;;;;;;9.23;4.03;;;;;;;;;;5029850;28;20028;-81
2021/12/09 03:06:20;;;;;;;7.68;3.70;;;;;;;;;;5020139;28;20061;-86
2021/12/09 03:08:45;;;;;;;9.73;3.80;;;;;;;;;;5032197;28;20032;-86
2021/12/09 03:11:16;;;;;;;9.43;4.30;;;;;;;;;;5036212;28;20025;-80
2021/12/09 03:13:43;;;;;;;8.32;3.90;;;;;;;;;;5031560;28;20029;-85
2021/12/09 03:16:09;;;;;;;10.52;3.72;;;;;;;;;;5034838;28;20048;-81
2021/12/09 03:18:48;;;;;;;8.50;4.13;;;;;;;;;;5032677;28;20401;-85
2021/12/09 03:21:20;;;;;;;10.15;4.07;;;;;;;;;;5026510;28;20092;-86
2021/12/09 03:23:47;;;;;;;9.95;3.97;;;;;;;;;;5048329;28;20030;-86
2021/12/09 03:26:14;;;;;;;6.53;3.55;;;;;;;;;;5028684;28;20033;-86
2021/12/09 03:28:39;;;;;;;7.82;3.58;;;;;;;;;;5025313;28;20072;-86
2021/12/09 03:31:06;;;;;;;9.88;3.65;;;;;;;;;;5025215;28;20056;-84
2021/12/09 03:33:31;;;;;;;8.02;4.15;;;;;;;;;;5040801;28;20469;-81
2021/12/09 03:35:59;;;;;;;11.80;4.20;;;;;;;;;;5042267;28;20033;-86
2021/12/09 03:38:25;;;;;;;11.02;3.92;;;;;;;;;;5033156;28;20027;-80
2021/12/09 03:40:50;;;;;;;11.02;4.03;;;;;;;;;;5033984;28;20100;-86
2021/12/09 03:43:16;;;;;;;10.40;4.72;;;;;;;;;;5032827;28;20024;-85
2021/12/09 03:45:41;;;;;;;12.00;4.50;;;;;;;;;;5030487;28;20021;-85
2021/12/09 03:48:07;;;;;;;11.90;4.10;;;;;;;;;;5050433;28;20036;-86
2021/12/09 03:50:32;;;;;;;6.93;3.53;;;;;;;;;;5033537;28;20032;-85
2021/12/09 03:52:57;;;;;;;8.95;3.83;;;;;;;;;;5034223;28;20041;-80
2021/12/09 03:55:23;;;;;;;10.77;4.00;;;;;;;;;;5029053;28;20505;-84
2021/12/09 03:57:48;;;;;;;8.82;3.50;;;;;;;;;;5032242;28;20396;-81
2021/12/09 04:00:14;;;;;;;9.20;3.95;;;;;;;;;;5035927;28;20028;-85
2021/12/09 04:02:40;;;;;;;10.25;4.43;;;;;;;;;;5034560;28;20522;-86
2021/12/09 04:05:06;;;;;;;10.15;3.50;;;;;;;;;;5031533;28;20035;-85
2021/12/09 04:07:32;;;;;;;15.35;3.72;;;;;;;;;;5052941;28;20055;-86
2021/12/09 04:09:58;;;;;;;8.63;3.70;;;;;;;;;;5033661;28;20028;-81
2021/12/09 04:12:23;;;;;;;11.63;3.88;;;;;;;;;;5031410;28;20028;-84
2021/12/09 04:14:49;;;;;;;8.20;3.72;;;;;;;;;;5053408;28;20470;-80
2021/12/09 04:17:14;;;;;;;7.00;3.42;;;;;;;;;;5030349;28;20112;-81
2021/12/09 04:19:46;;;;;;;11.45;3.40;;;;;;;;;;5029198;28;20048;-80
2021/12/09 04:22:12;;;;;;;7.25;3.72;;;;;;;;;;5019560;28;20029;-85
2021/12/09 04:24:38;;;;;;;11.32;3.88;;;;;;;;;;5057111;28;20028;-85
2021/12/09 04:27:04;;;;;;;9.95;3.35;;;;;;;;;;5032135;28;20017;-80
2021/12/09 04:29:29;;;;;;;8.38;3.63;;;;;;;;;;5026783;28;20064;-80
2021/12/09 04:31:55;;;;;;;10.93;3.63;;;;;;;;;;5033106;28;20079;-85
2021/12/09 04:34:20;;;;;;;8.35;3.60;;;;;;;;;;5034723;28;20365;-80
2021/12/09 04:36:46;;;;;;;10.38;3.90;;;;;;;;;;5031473;28;20036;-86
2021/12/09 04:39:11;;;;;;;10.85;4.00;;;;;;;;;;5035060;28;20384;-85
2021/12/09 04:41:36;;;;;;;9.15;3.10;;;;;;;;;;5052282;28;20547;-82
2021/12/09 04:44:04;;;;;;;6.28;3.47;;;;;;;;;;5036513;28;20032;-80
2021/12/09 04:46:29;;;;;;;9.57;3.50;;;;;;;;;;5028984;28;20090;-85
2021/12/09 04:48:56;;;;;;;8.52;3.38;;;;;;;;;;5034797;28;20028;-80
2021/12/09 04:51:22;;;;;;;9.23;3.40;;;;;;;;;;5044516;28;20026;-85
2021/12/09 04:53:47;;;;;;;6.50;2.95;;;;;;;;;;5025988;28;20040;-81
2021/12/09 04:56:13;;;;;;;12.02;3.90;;;;;;;;;;5028036;28;20035;-81
2021/12/09 04:58:38;;;;;;;10.13;3.30;;;;;;;;;;5043764;28;20029;-81
2021/12/09 05:01:06;;;;;;;8.63;3.45;;;;;;;;;;5051782;28;20439;-85
2021/12/09 05:03:32;;;;;;;8.38;3.17;;;;;;;;;;5024933;28;20111;-86
2021/12/09 05:05:57;;;;;;;7.45;3.13;;;;;;;;;;5022185;28;20159;-85
2021/12/09 05:08:27;;;;;;;7.63;3.03;;;;;;;;;;5046231;28;20048;-81
2021/12/09 05:11:01;;;;;;;8.40;3.20;;;;;;;;;;5046609;28;20510;-85
2021/12/09 05:13:29;;;;;;;7.70;2.90;;;;;;;;;;5026185;28;20130;-81
2021/12/09 05:15:56;;;;;;;5.30;2.60;;;;;;;;;;5041473;28;20400;-81
2021/12/09 05:18:24;;;;;;;10.20;3.20;;;;;;;;;;5023031;28;20050;-81
2021/12/09 05:20:50;;;;;;;7.80;3.20;;;;;;;;;;5029685;28;20033;-86
2021/12/09 05:23:17;;;;;;;10.68;3.40;;;;;;;;;;5027244;28;20433;-85
2021/12/09 05:25:43;;;;;;;7.63;3.08;;;;;;;;;;5026761;28;20466;-87
2021/12/09 05:28:11;;;;;;;6.40;2.90;;;;;;;;;;5029342;28;20021;-81
2021/12/09 05:32:07;;;;;;;11.82;2.97;;;;;;;;;;5051360;28;20087;-86
2021/12/09 05:33:25;;;;;;;6.95;3.00;;;;;;;;;;5050565;28;20457;-81
2021/12/09 05:35:51;;;;;;;8.25;2.80;;;;;;;;;;5028926;28;20384;-81
2021/12/09 05:38:16;;;;;;;9.93;3.28;;;;;;;;;;5024006;28;20033;-86
2021/12/09 05:40:42;;;;;;;6.05;2.63;;;;;;;;;;5031650;28;20033;-87
2021/12/09 05:43:07;;;;;;;7.07;2.85;;;;;;;;;;5024674;28;20021;-86
2021/12/09 05:45:33;;;;;;;10.68;2.75;;;;;;;;;;5026801;28;20029;-86
2021/12/09 05:47:58;;;;;;;11.70;3.35;;;;;;;;;;5026953;28;20090;-81
2021/12/09 05:50:23;;;;;;;9.45;3.63;;;;;;;;;;5040302;28;20026;-81
2021/12/09 05:52:49;;;;;;;7.50;3.05;;;;;;;;;;5032586;28;20039;-86
2021/12/09 05:55:15;;;;;;;6.38;2.63;;;;;;;;;;5030186;28;20106;-81
2021/12/09 05:57:41;;;;;;;6.43;2.58;;;;;;;;;;5030353;28;20110;-86
2021/12/09 06:00:08;;;;;;;6.90;2.75;;;;;;;;;;5032610;28;20472;-87
2021/12/09 06:02:35;;;;;;;10.93;3.20;;;;;;;;;;5047241;28;20017;-84
2021/12/09 06:05:02;;;;;;;8.13;3.03;;;;;;;;;;5023746;28;20029;-86
2021/12/09 06:07:27;;;;;;;8.80;3.35;;;;;;;;;;5029898;28;20531;-81
2021/12/09 06:09:54;;;;;;;6.97;2.72;;;;;;;;;;5029435;28;20029;-85
2021/12/09 06:12:20;;;;;;;6.38;3.15;;;;;;;;;;5042671;28;20029;-81
2021/12/09 06:14:45;;;;;;;8.73;2.80;;;;;;;;;;5048354;28;20644;-82
2021/12/09 06:17:11;;;;;;;6.90;2.78;;;;;;;;;;5027881;28;20036;-86
2021/12/09 06:19:37;;;;;;;6.97;2.70;;;;;;;;;;5023449;28;20419;-82
2021/12/09 06:22:03;;;;;;;9.88;2.53;;;;;;;;;;5029121;28;20090;-81
2021/12/09 06:24:28;;;;;;;7.65;2.70;;;;;;;;;;5035070;28;20590;-81
2021/12/09 06:26:53;;;;;;;7.15;2.90;;;;;;;;;;5033179;28;20476;-82
2021/12/09 06:29:19;;;;;;;6.60;2.97;;;;;;;;;;5035523;28;20032;-87
2021/12/09 06:31:44;;;;;;;6.45;2.70;;;;;;;;;;5047930;28;20025;-86
2021/12/09 06:34:12;;;;;;;7.30;3.03;;;;;;;;;;5030159;28;20095;-86
2021/12/09 06:36:39;;;;;;;6.65;2.80;;;;;;;;;;5031778;28;20480;-86
2021/12/09 06:39:05;;;;;;;7.38;2.67;;;;;;;;;;5037655;28;20392;-87
2021/12/09 06:41:31;;;;;;;8.02;2.92;;;;;;;;;;5052788;28;20428;-82
2021/12/09 06:43:56;;;;;;;6.45;2.70;;;;;;;;;;5028288;28;20068;-86
2021/12/09 06:46:22;;;;;;;10.30;2.95;;;;;;;;;;5034464;28;20028;-87
2021/12/09 06:48:47;;;;;;;7.68;3.22;;;;;;;;;;5035118;28;20033;-81
2021/12/09 06:51:13;;;;;;;7.53;2.92;;;;;;;;;;5034117;28;20527;-81
2021/12/09 06:53:38;;;;;;;9.23;2.72;;;;;;;;;;5028822;28;20120;-82
2021/12/09 06:56:04;;;;;;;9.57;3.10;;;;;;;;;;5038095;28;20029;-81
2021/12/09 06:58:30;;;;;;;11.52;2.85;;;;;;;;;;5033735;28;20365;-81
2021/12/09 07:00:56;;;;;;;5.53;2.85;;;;;;;;;;5028946;28;20041;-81
2021/12/09 07:03:23;;;;;;;8.52;3.03;;;;;;;;;;5037826;28;20092;-87
2021/12/09 07:05:50;;;;;;;6.45;2.72;;;;;;;;;;5035544;28;20108;-81
2021/12/09 07:08:16;;;;;;;8.23;3.03;;;;;;;;;;5042247;28;20093;-87
2021/12/09 07:10:42;;;;;;;9.85;3.17;;;;;;;;;;5030512;28;20124;-81
2021/12/09 07:13:08;;;;;;;8.43;2.83;;;;;;;;;;5033368;28;20021;-82
2021/12/09 07:15:33;;;;;;;6.78;3.10;;;;;;;;;;5033551;28;20416;-81
2021/12/09 07:17:59;;;;;;;6.07;2.78;;;;;;;;;;5034631;28;20139;-87
2021/12/09 07:20:27;;;;;;;9.52;3.22;;;;;;;;;;5056199;28;20476;-81
2021/12/09 07:22:53;;;;;;;13.27;3.55;;;;;;;;;;5033772;28;20024;-86
2021/12/09 07:25:20;;;;;;;7.35;3.17;;;;;;;;;;5037224;28;20033;-87
2021/12/09 07:27:46;;;;;;;7.18;2.88;;;;;;;;;;5036188;28;20032;-87
2021/12/09 07:30:15;;;;;;;7.63;3.00;;;;;;;;;;5035368;28;20124;-81
2021/12/09 07:32:42;;;;;;;8.45;3.03;;;;;;;;;;5029296;28;20028;-81
2021/12/09 07:35:08;;;;;;;10.85;3.35;;;;;;;;;;5035471;28;20032;-86
2021/12/09 07:37:37;;;;;;;10.73;3.17;;;;;;;;;;5038498;28;20463;-86
2021/12/09 07:40:04;;;;;;;8.10;3.10;;;;;;;;;;5042566;28;20043;-81
2021/12/09 07:42:30;;;;;;;7.85;3.10;;;;;;;;;;5025557;28;20029;-87
2021/12/09 07:44:55;;;;;;;8.40;3.05;;;;;;;;;;5026336;28;20499;-81
2021/12/09 07:47:21;;;;;;;7.25;3.00;;;;;;;;;;5036533;28;20025;-87
2021/12/09 07:49:46;;;;;;;8.43;3.10;;;;;;;;;;5036610;28;20029;-87
2021/12/09 07:52:12;;;;;;;7.50;3.00;;;;;;;;;;5033734;28;20029;-86
2021/12/09 07:54:37;;;;;;;9.20;3.55;;;;;;;;;;5038175;28;20117;-85
2021/12/09 07:57:03;;;;;;;6.68;3.20;;;;;;;;;;5037383;28;20025;-81
2021/12/09 07:59:28;;;;;;;8.43;3.20;;;;;;;;;;5033022;28;20027;-81
2021/12/09 08:01:54;;;;;;;7.80;3.35;;;;;;;;;;5032200;28;20021;-81
2021/12/09 08:04:20;;;;;;;8.20;3.72;;;;;;;;;;5035618;28;20101;-81
2021/12/09 08:06:45;;;;;;;8.82;3.50;;;;;;;;;;5038027;28;20062;-86
2021/12/09 08:09:11;;;;;;;7.97;3.28;;;;;;;;;;5039948;28;20496;-81
2021/12/09 08:11:37;;;;;;;8.88;3.25;;;;;;;;;;5036089;28;20043;-81
2021/12/09 08:14:05;;;;;;;10.05;3.88;;;;;;;;;;5036633;28;20082;-80
2021/12/09 08:16:37;;;;;;;8.43;3.42;;;;;;;;;;5033509;28;20044;-85
2021/12/09 08:19:03;;;;;;;8.48;3.15;;;;;;;;;;5043588;28;20056;-86
2021/12/09 08:21:29;;;;;;;9.57;3.75;;;;;;;;;;5034237;28;20580;-86
2021/12/09 08:23:54;;;;;;;9.02;3.25;;;;;;;;;;5057170;28;20035;-86
2021/12/09 08:26:21;;;;;;;7.43;3.97;;;;;;;;;;5024045;28;20116;-85
2021/12/09 08:28:47;;;;;;;7.50;3.10;;;;;;;;;;5047363;28;20036;-85
2021/12/09 08:31:12;;;;;;;6.78;3.00;;;;;;;;;;5066600;28;20025;-81
2021/12/09 08:33:39;;;;;;;10.18;3.67;;;;;;;;;;5025331;28;20036;-81
2021/12/09 08:36:05;;;;;;;12.15;3.63;;;;;;;;;;5039195;28;20020;-81
2021/12/09 08:38:30;;;;;;;8.35;3.65;;;;;;;;;;5039837;28;20503;-88
2021/12/09 08:40:56;;;;;;;7.88;3.08;;;;;;;;;;5038180;28;20108;-81
2021/12/09 08:43:22;;;;;;;9.18;3.78;;;;;;;;;;5047341;28;20020;-81
2021/12/09 08:45:53;;;;;;;8.02;3.65;;;;;;;;;;5038568;28;20048;-81
2021/12/09 08:48:18;;;;;;;8.60;3.83;;;;;;;;;;5035113;28;20545;-81
2021/12/09 08:50:44;;;;;;;10.98;4.10;;;;;;;;;;5034751;28;20021;-81
2021/12/09 08:53:16;;;;;;;8.43;3.45;;;;;;;;;;5054540;28;20061;-81
2021/12/09 08:55:42;;;;;;;10.05;3.30;;;;;;;;;;5053648;28;20029;-81
2021/12/09 08:58:10;;;;;;;8.57;3.35;;;;;;;;;;5025300;28;20086;-81
2021/12/09 09:00:36;;;;;;;9.73;3.50;;;;;;;;;;5030807;28;20088;-87
2021/12/09 09:03:03;;;;;;;8.80;3.45;;;;;;;;;;5024277;28;20115;-81
2021/12/09 09:05:29;;;;;;;8.32;3.53;;;;;;;;;;5037407;28;20090;-81
2021/12/09 09:15:38;;;;;;;;;;;;;;;;;;5049272;28;20107;-82
2021/12/09 09:18:05;;;;;;;6.47;3.22;;;;;;;;;;5053245;28;19913;-81
2021/12/09 09:20:31;;;;;;;7.70;3.40;;;;;;;;;;5035272;28;20017;-81
2021/12/09 09:22:58;;;;;;;8.82;3.85;;;;;;;;;;5053895;28;20033;-81
2021/12/09 09:25:29;;;;;;;9.13;3.53;;;;;;;;;;5037232;28;20057;-81
2021/12/09 09:27:56;;;;;;;10.82;3.80;;;;;;;;;;5031327;28;20029;-81
2021/12/09 09:30:21;;;;;;;8.23;3.30;;;;;;;;;;5035246;28;20029;-86
2021/12/09 09:32:49;;;;;;;6.18;3.58;;;;;;;;;;5038668;28;20047;-81
2021/12/09 09:35:16;;;;;;;9.60;3.95;;;;;;;;;;5042546;28;20075;-81
2021/12/09 09:37:41;;;;;;;9.05;3.33;;;;;;;;;;5044938;28;20126;-81
2021/12/09 09:40:11;;;;;;;8.52;3.95;;;;;;;;;;5038547;28;20017;-87
2021/12/09 09:45:07;;;;;;;11.63;4.00;;;;;;;;;;5053744;28;20047;-81
2021/12/09 09:47:33;;;;;;;9.15;3.90;;;;;;;;;;5034802;28;20032;-81
2021/12/09 09:50:05;;;;;;;8.77;3.50;;;;;;;;;;5034737;28;20047;-87
2021/12/09 09:52:30;;;;;;;7.10;3.50;;;;;;;;;;5052554;28;20028;-81
2021/12/09 09:54:56;;;;;;;9.43;3.65;;;;;;;;;;5036283;28;20032;-85
2021/12/09 09:57:22;;;;;;;9.43;3.92;;;;;;;;;;5047747;28;20029;-81
2021/12/09 09:59:48;;;;;;;8.05;3.58;;;;;;;;;;5037970;28;20090;-86
2021/12/09 10:02:15;;;;;;;8.82;4.20;;;;;;;;;;5045739;28;20029;-86
2021/12/09 10:07:08;;;;;;;12.88;4.35;;;;;;;;;;5055526;28;20426;-80
2021/12/09 10:09:33;;;;;;;8.63;3.88;;;;;;;;;;5062936;28;21939;-81
2021/12/09 10:12:00;;;;;;;14.13;4.95;;;;;;;;;;5046461;28;20107;-86
2021/12/09 10:14:34;;;;;;;15.38;4.95;;;;;;;;;;5038592;28;20564;-81
2021/12/09 10:17:08;;;;;;;9.60;4.43;;;;;;;;;;5049298;28;20029;-81
2021/12/09 10:19:40;;;;;;;11.20;5.32;;;;;;;;;;5053165;28;20412;-88
2021/12/09 10:22:07;;;;;;;12.75;5.90;;;;;;;;;;5054288;28;20064;-84
2021/12/09 10:24:33;;;;;;;11.88;5.13;;;;;;;;;;5044184;28;20040;-81
2021/12/09 10:26:58;;;;;;;12.35;5.32;;;;;;;;;;5050990;28;20025;-85
2021/12/09 10:29:34;;;;;;;11.63;5.43;;;;;;;;;;5045475;28;20047;-81
2021/12/09 10:32:06;;;;;;;12.05;5.53;;;;;;;;;;5051332;28;20028;-85
2021/12/09 10:34:37;;;;;;;9.93;5.20;;;;;;;;;;5060608;28;20047;-80
2021/12/09 10:37:08;;;;;;;10.90;5.32;;;;;;;;;;5048792;28;20103;-81
2021/12/09 10:39:46;;;;;;;14.73;5.47;;;;;;;;;;5037722;28;20124;-84
2021/12/09 10:42:17;;;;;;;11.90;5.55;;;;;;;;;;5041161;28;20433;-82
2021/12/09 10:45:07;;;;;;;14.13;5.93;;;;;;;;;;5067425;28;20031;-81
2021/12/09 10:50:16;;;;;;;13.55;5.85;;;;;;;;;;5043423;28;20113;-87
2021/12/09 10:52:48;;;;;;;12.27;5.20;;;;;;;;;;5057965;28;20487;-85
2021/12/09 10:55:24;;;;;;;13.85;6.05;;;;;;;;;;5040529;28;20025;-89
2021/12/09 10:57:56;;;;;;;12.75;5.53;;;;;;;;;;5025574;28;20033;-88
2021/12/09 11:00:34;;;;;;;11.25;5.35;;;;;;;;;;5039537;28;20016;-81
2021/12/09 11:03:04;;;;;;;9.73;5.30;;;;;;;;;;5037820;28;20074;-89
2021/12/09 11:05:32;;;;;;;9.32;5.45;;;;;;;;;;5033645;28;20029;-87
2021/12/09 11:08:22;;;;;;;16.48;5.10;;;;;;;;;;5040818;28;20032;-88
2021/12/09 11:10:55;;;;;;;14.35;5.60;;;;;;;;;;5038673;28;20031;-81
2021/12/09 11:13:21;;;;;;;9.95;5.72;;;;;;;;;;5042080;28;20070;-85
2021/12/09 11:15:56;;;;;;;9.38;5.38;;;;;;;;;;5037921;28;20127;-84
2021/12/09 11:18:36;;;;;;;11.90;5.80;;;;;;;;;;5037293;28;22355;-88
2021/12/09 11:21:22;;;;;;;14.18;5.45;;;;;;;;;;5068739;28;20025;-81
2021/12/09 11:23:59;;;;;;;12.95;4.97;;;;;;;;;;5032150;28;20078;-80
2021/12/09 11:26:44;;;;;;;12.38;5.75;;;;;;;;;;5052853;28;20396;-85
2021/12/09 11:29:17;;;;;;;9.55;5.13;;;;;;;;;;5031459;28;20831;-82
2021/12/09 11:31:46;;;;;;;;;;;;;;;;;;5034551;28;20021;-86
2021/12/09 11:34:16;;;;;;;13.18;5.00;;;;;;;;;;5035418;28;19920;-88
2021/12/09 11:37:00;;;;;;;10.95;5.30;;;;;;;;;;5039979;28;20033;-88
2021/12/09 11:39:38;;;;;;;11.15;5.38;;;;;;;;;;5052861;28;20032;-81
2021/12/09 11:42:18;;;;;;;10.57;5.38;;;;;;;;;;5041448;28;20067;-87
2021/12/09 11:44:45;;;;;;;9.85;5.50;;;;;;;;;;5029767;28;20408;-87
2021/12/09 11:47:12;;;;;;;13.38;5.55;;;;;;;;;;5049515;28;20035;-88
2021/12/09 11:49:37;;;;;;;11.20;5.70;;;;;;;;;;5036268;28;20033;-81
2021/12/09 11:52:03;;;;;;;9.45;5.47;;;;;;;;;;5050102;28;20555;-81
2021/12/09 11:54:28;;;;;;;10.43;6.00;;;;;;;;;;5025878;28;20029;-88
2021/12/09 11:57:10;;;;;;;9.15;5.40;;;;;;;;;;5024716;28;20112;-85
2021/12/09 12:08:00;;;;;;;10.50;5.95;;;;;;;;;;5054435;28;20036;-80
2021/12/09 12:13:47;;;;;;;9.48;5.72;;;;;;;;;;5051341;28;20085;-81
2021/12/09 12:17:03;;;;;;;10.45;5.63;;;;;;;;;;5045573;28;20052;-86
2021/12/09 12:20:31;;;;;;;12.13;5.85;;;;;;;;;;5017613;28;20507;-85
2021/12/09 12:25:46;;;;;;;14.23;6.40;;;;;;;;;;5046561;28;20374;-80
2021/12/09 12:28:49;;;;;;;9.18;5.40;;;;;;;;;;5060747;28;20051;-85
2021/12/09 12:31:58;;;;;;;10.25;5.55;;;;;;;;;;5032580;28;20029;-84
2021/12/09 12:35:01;;;;;;;11.57;6.00;;;;;;;;;;5053063;28;20032;-80
2021/12/09 12:40:25;;;;;;;11.23;5.97;;;;;;;;;;5038729;28;20068;-89
2021/12/09 12:43:08;;;;;;;11.18;6.05;;;;;;;;;;5034486;28;20396;-80
2021/12/09 12:46:03;;;;;;;9.45;5.63;;;;;;;;;;5020065;28;20036;-81
2021/12/09 12:48:56;;;;;;;11.30;6.43;;;;;;;;;;5041267;28;20056;-84
2021/12/09 12:51:45;;;;;;;11.63;6.22;;;;;;;;;;5046499;28;20038;-82
2021/12/09 12:54:18;;;;;;;11.57;6.47;;;;;;;;;;5049155;28;20434;-81
2021/12/09 12:56:54;;;;;;;11.15;6.35;;;;;;;;;;5050270;28;20060;-89
2021/12/09 12:59:24;;;;;;;10.68;5.80;;;;;;;;;;5033947;28;20104;-81
2021/12/09 13:05:01;;;;;;;9.70;6.40;;;;;;;;;;5023872;28;20048;-81
2021/12/09 13:16:17;;;;;;;11.32;6.55;;;;;;;;;;5066502;28;20044;-91
2021/12/09 13:21:39;;;;;;;13.48;6.53;;;;;;;;;;5048663;28;19909;-89
2021/12/09 13:24:41;;;;;;;9.27;6.45;;;;;;;;;;5036549;28;20473;-81
2021/12/09 13:27:39;;;;;;;11.00;6.72;;;;;;;;;;5034437;28;20025;-85
2021/12/09 13:30:34;;;;;;;11.18;6.55;;;;;;;;;;5024335;28;20029;-82
2021/12/09 13:46:25;;;;;;;13.75;7.40;;;;;;;;;;5045042;28;20020;-84
2021/12/09 13:49:21;;;;;;;12.55;7.38;;;;;;;;;;5019180;28;20025;-81
2021/12/09 13:54:23;;;;;;;13.35;7.55;;;;;;;;;;5045019;28;20025;-82
2021/12/09 13:56:53;;;;;;;11.85;7.15;;;;;;;;;;5048003;28;20100;-81
2021/12/09 13:59:20;;;;;;;16.58;7.03;;;;;;;;;;5025511;28;20026;-82
2021/12/09 14:01:47;;;;;;;12.60;7.60;;;;;;;;;;5052538;28;20098;-84
2021/12/09 14:04:14;;;;;;;11.65;7.03;;;;;;;;;;5019226;28;20028;-81
2021/12/09 14:06:52;;;;;;;15.05;7.05;;;;;;;;;;5034808;28;20033;-84
2021/12/09 14:09:18;;;;;;;14.50;8.35;;;;;;;;;;5050497;28;20496;-81
2021/12/09 14:11:48;;;;;;;15.20;7.43;;;;;;;;;;5041175;28;20027;-81
2021/12/09 14:14:20;;;;;;;13.50;7.13;;;;;;;;;;5027701;28;20061;-82
2021/12/09 14:21:50;;;;;;;12.85;7.18;;;;;;;;;;5055728;28;20050;-89
2021/12/09 14:24:21;;;;;;;14.52;7.85;;;;;;;;;;5034916;28;20163;-81
2021/12/09 14:27:04;;;;;;;11.45;7.47;;;;;;;;;;5034056;28;20021;-82
2021/12/09 14:29:33;;;;;;;12.90;6.95;;;;;;;;;;5034659;28;20032;-89
2021/12/09 14:32:03;;;;;;;11.20;7.10;;;;;;;;;;5034013;28;20029;-82
2021/12/09 14:34:36;;;;;;;15.57;7.88;;;;;;;;;;5057604;28;20052;-89
2021/12/09 14:37:03;;;;;;;13.65;7.95;;;;;;;;;;5021921;28;20030;-82
2021/12/09 14:39:29;;;;;;;13.50;7.95;;;;;;;;;;5035097;28;20066;-84
2021/12/09 14:42:10;;;;;;;15.98;7.90;;;;;;;;;;5034170;28;20024;-84
2021/12/09 14:44:36;;;;;;;12.90;7.88;;;;;;;;;;5031984;28;20510;-82
2021/12/09 14:47:21;;;;;;;14.18;8.30;;;;;;;;;;5023854;28;20021;-82
2021/12/09 14:49:49;;;;;;;16.23;8.10;;;;;;;;;;5038721;28;20136;-82
2021/12/09 14:52:30;;;;;;;18.63;8.23;;;;;;;;;;5035651;28;20179;-84
2021/12/09 14:55:19;;;;;;;17.27;8.25;;;;;;;;;;5029571;28;20061;-84
2021/12/09 14:58:09;;;;;;;14.57;7.70;;;;;;;;;;5054221;28;20079;-87
2021/12/09 15:00:54;;;;;;;15.02;8.13;;;;;;;;;;5027133;28;20017;-88
2021/12/09 15:03:43;;;;;;;12.88;7.97;;;;;;;;;;5043120;28;20037;-81
2021/12/09 15:06:21;;;;;;;17.27;9.30;;;;;;;;;;5032620;28;20043;-84
2021/12/09 15:08:50;;;;;;;17.23;8.40;;;;;;;;;;5035804;28;20043;-85
2021/12/09 15:11:18;;;;;;;14.90;7.93;;;;;;;;;;5019211;28;20040;-82
2021/12/09 15:13:49;;;;;;;17.27;8.43;;;;;;;;;;5050979;28;20049;-88
2021/12/09 15:16:23;;;;;;;15.02;7.70;;;;;;;;;;5032496;28;20079;-84
2021/12/09 15:18:50;;;;;;;16.27;7.95;;;;;;;;;;5027213;28;20511;-81
2021/12/09 15:21:25;;;;;;;12.93;8.05;;;;;;;;;;5040998;28;20053;-83
2021/12/09 15:23:55;;;;;;;15.50;8.38;;;;;;;;;;5043520;28;20040;-81
2021/12/09 15:26:24;;;;;;;23.55;9.00;;;;;;;;;;5048453;28;20021;-81
2021/12/09 15:29:16;;;;;;;15.85;8.23;;;;;;;;;;5044290;28;20810;-86
2021/12/09 15:31:45;;;;;;;16.08;8.73;;;;;;;;;;5038606;28;20057;-82
2021/12/09 15:34:15;;;;;;;14.27;8.32;;;;;;;;;;5034584;28;20051;-82
2021/12/09 15:36:45;;;;;;;15.05;8.55;;;;;;;;;;5063342;28;20029;-82
2021/12/09 15:39:16;;;;;;;17.40;8.45;;;;;;;;;;5041950;28;20104;-84
2021/12/09 15:41:45;;;;;;;14.02;9.02;;;;;;;;;;5035204;28;20427;-84
2021/12/09 15:44:21;;;;;;;18.80;10.00;;;;;;;;;;5036068;28;20032;-82
2021/12/09 15:47:01;;;;;;;20.45;10.88;;;;;;;;;;5054319;28;20021;-81
2021/12/09 15:49:29;;;;;;;21.00;11.32;;;;;;;;;;5035803;28;20086;-87
2021/12/09 15:52:04;;;;;;;18.52;9.82;;;;;;;;;;5026400;28;20392;-80
2021/12/09 15:54:35;;;;;;;16.02;9.82;;;;;;;;;;5033378;28;20033;-84
2021/12/09 15:57:08;;;;;;;23.65;12.73;;;;;;;;;;5053101;28;20033;-82
2021/12/09 15:59:35;;;;;;;19.35;9.63;;;;;;;;;;5030567;28;20552;-82